地図

経路データ

SID SEASON NUMBER BASIN SUBBASIN NAME ISO_TIME NATURE LAT LON WMO_WIND WMO_PRES WMO_AGENCY TRACK_TYPE DIST2LAND LANDFALL IFLAG USA_AGENCY USA_ATCF_ID USA_LAT USA_LON USA_RECORD USA_STATUS USA_WIND USA_PRES USA_SSHS USA_R34_NE USA_R34_SE USA_R34_SW USA_R34_NW USA_R50_NE USA_R50_SE USA_R50_SW USA_R50_NW USA_R64_NE USA_R64_SE USA_R64_SW USA_R64_NW USA_POCI USA_ROCI USA_RMW USA_EYE TOKYO_LAT TOKYO_LON TOKYO_GRADE TOKYO_WIND TOKYO_PRES TOKYO_R50_DIR TOKYO_R50_LONG TOKYO_R50_SHORT TOKYO_R30_DIR TOKYO_R30_LONG TOKYO_R30_SHORT TOKYO_LAND CMA_LAT CMA_LON CMA_CAT CMA_WIND CMA_PRES HKO_LAT HKO_LON HKO_CAT HKO_WIND HKO_PRES NEWDELHI_LAT NEWDELHI_LON NEWDELHI_GRADE NEWDELHI_WIND NEWDELHI_PRES NEWDELHI_CI NEWDELHI_DP NEWDELHI_POCI REUNION_LAT REUNION_LON REUNION_TYPE REUNION_WIND REUNION_PRES REUNION_TNUM REUNION_CI REUNION_RMW REUNION_R34_NE REUNION_R34_SE REUNION_R34_SW REUNION_R34_NW REUNION_R50_NE REUNION_R50_SE REUNION_R50_SW REUNION_R50_NW REUNION_R64_NE REUNION_R64_SE REUNION_R64_SW REUNION_R64_NW BOM_LAT BOM_LON BOM_TYPE BOM_WIND BOM_PRES BOM_TNUM BOM_CI BOM_RMW BOM_R34_NE BOM_R34_SE BOM_R34_SW BOM_R34_NW BOM_R50_NE BOM_R50_SE BOM_R50_SW BOM_R50_NW BOM_R64_NE BOM_R64_SE BOM_R64_SW BOM_R64_NW BOM_ROCI BOM_POCI BOM_EYE BOM_POS_METHOD BOM_PRES_METHOD NADI_LAT NADI_LON NADI_CAT NADI_WIND NADI_PRES WELLINGTON_LAT WELLINGTON_LON WELLINGTON_WIND WELLINGTON_PRES DS824_LAT DS824_LON DS824_STAGE DS824_WIND DS824_PRES TD9636_LAT TD9636_LON TD9636_STAGE TD9636_WIND TD9636_PRES TD9635_LAT TD9635_LON TD9635_WIND TD9635_PRES TD9635_ROCI NEUMANN_LAT NEUMANN_LON NEUMANN_CLASS NEUMANN_WIND NEUMANN_PRES MLC_LAT MLC_LON MLC_CLASS MLC_WIND MLC_PRES USA_GUST BOM_GUST BOM_GUST_PER REUNION_GUST REUNION_GUST_PER USA_SEAHGT USA_SEARAD_NE USA_SEARAD_SE USA_SEARAD_SW USA_SEARAD_NW STORM_SPEED STORM_DIR
1936078S14155 1936 10 SP EA NOT_NAMED 1936-03-17 23:00:00 NR -13.6500 155.050 bom main 584 582 ______O___O___ -1 -13.7000 155.100 -13.6000 155.000 7 7 205
1936078S14155 1936 10 SP EA NOT_NAMED 1936-03-18 00:00:00 TS -13.7572 154.987 main 589 580 ______P__OP___ -1 -13.7919 155.021 -13.8000 155.000 TC -13.7011 154.946 7 7 213
1936078S14155 1936 10 SP EA NOT_NAMED 1936-03-18 03:00:00 TS -14.0459 154.783 main 586 584 ______P__PP___ -1 -14.0679 154.785 -14.0757 154.780 TC -14.0040 154.783 7 7 215
1936078S14155 1936 10 SP EA NOT_NAMED 1936-03-18 06:00:00 TS -14.3326 154.577 main 592 592 ______P__PP___ -1 -14.3452 154.552 -14.3524 154.562 TC -14.3051 154.612 7 7 215
1936078S14155 1936 10 SP EA NOT_NAMED 1936-03-18 09:00:00 TS -14.6199 154.367 main 601 601 ______P__PP___ -1 -14.6251 154.324 -14.6313 154.348 TC -14.6034 154.430 7 7 215
1936078S14155 1936 10 SP EA NOT_NAMED 1936-03-18 11:00:00 TS -14.8109 154.228 main 604 604 ______P__PO___ -1 -14.8136 154.176 -14.8190 154.208 TC -14.8000 154.300 7 7 215
1936078S14155 1936 10 SP EA NOT_NAMED 1936-03-18 12:00:00 TS -14.9066 154.158 main 613 606 ______P__PP___ -1 -14.9087 154.104 -14.9135 154.139 TC -14.8976 154.232 7 7 215
1936078S14155 1936 10 SP EA NOT_NAMED 1936-03-18 15:00:00 TS -15.1956 153.950 main 627 621 ______P__PP___ -1 -15.1972 153.893 -15.2003 153.937 TC -15.1892 154.020 7 7 214
1936078S14155 1936 10 SP EA NOT_NAMED 1936-03-18 18:00:00 TS -15.4896 153.750 main 637 637 ______P__PP___ -1 -15.4919 153.695 -15.4928 153.746 TC -15.4842 153.808 7 7 212
1936078S14155 1936 10 SP EA NOT_NAMED 1936-03-18 21:00:00 TS -15.7916 153.564 main 661 656 ______P__PP___ -1 -15.7939 153.512 -15.7923 153.566 TC -15.7886 153.613 7 7 210
1936078S14155 1936 10 SP EA NOT_NAMED 1936-03-18 23:00:00 TS -15.9988 153.451 bom main 676 671 ______O__PO___ -1 -16.0000 153.400 -15.9964 153.454 TC -16.0000 153.500 7 7 207
1936078S14155 1936 10 SP EA NOT_NAMED 1936-03-19 00:00:00 TS -16.1048 153.399 main 675 644 ______P__OP___ -1 -16.1046 153.347 -16.1000 153.400 TC -16.1099 153.450 7 7 203
1936078S14155 1936 10 SP EA NOT_NAMED 1936-03-19 03:00:00 TS -16.4306 153.256 main 644 606 ______P__PP___ -1 -16.4242 153.201 -16.4168 153.250 TC -16.4508 153.319 7 7 201
1936078S14155 1936 10 SP EA NOT_NAMED 1936-03-19 06:00:00 TS -16.7656 153.136 main 598 569 ______P__PP___ -1 -16.7517 153.075 -16.7418 153.118 TC -16.8034 153.216 7 7 197
1936078S14155 1936 10 SP EA NOT_NAMED 1936-03-19 09:00:00 TS -17.1071 153.038 main 569 555 ______P__PP___ -1 -17.0860 152.970 -17.0739 153.005 TC -17.1614 153.139 7 7 194
1936078S14155 1936 10 SP EA NOT_NAMED 1936-03-19 11:00:00 TS -17.3369 152.985 main 555 548 ______P__PO___ -1 -17.3119 152.913 -17.2987 152.942 TC -17.4000 153.100 7 7 194
1936078S14155 1936 10 SP EA NOT_NAMED 1936-03-19 12:00:00 TS -17.4511 152.960 main 541 513 ______P__PP___ -1 -17.4258 152.889 -17.4120 152.914 TC -17.5154 153.077 7 7 189
1936078S14155 1936 10 SP EA NOT_NAMED 1936-03-19 15:00:00 TS -17.7953 152.899 main 513 495 ______P__PP___ -1 -17.7699 152.831 -17.7548 152.846 TC -17.8612 153.021 7 7 187
1936078S14155 1936 10 SP EA NOT_NAMED 1936-03-19 18:00:00 TS -18.1424 152.863 main 495 474 ______P__PP___ -1 -18.1173 152.797 -18.1012 152.803 TC -18.2087 152.990 7 7 184
1936078S14155 1936 10 SP EA NOT_NAMED 1936-03-19 21:00:00 TS -18.4925 152.854 main 474 464 ______P__PP___ -1 -18.4666 152.790 -18.4500 152.787 TC -18.5609 152.986 7 7 179
1936078S14155 1936 10 SP EA NOT_NAMED 1936-03-19 23:00:00 TS -18.7278 152.864 992 bom main 464 459 ______O__PO___ -1 -18.7000 152.800 992 4 -18.6833 152.792 TC -18.8000 153.000 7 7 177
1936078S14155 1936 10 SP EA NOT_NAMED 1936-03-20 00:00:00 TS -18.8480 152.871 main 459 424 ______P__OP___ -1 -18.8213 152.805 -18.8000 152.800 TC 45 992 -18.9229 153.008 7 7 176
1936078S14155 1936 10 SP EA NOT_NAMED 1936-03-20 03:00:00 TS -19.2178 152.909 main 424 393 ______P__PP___ -1 -19.1896 152.839 -19.1663 152.834 TC -19.2975 153.052 7 8 173
1936078S14155 1936 10 SP EA NOT_NAMED 1936-03-20 06:00:00 TS -19.5916 152.975 main 393 367 ______P__PP___ -1 -19.5612 152.901 -19.5373 152.899 TC -19.6763 153.125 7 8 169
1936078S14155 1936 10 SP EA NOT_NAMED 1936-03-20 09:00:00 TS -19.9642 153.067 main 365 349 ______P__PP___ -1 -19.9312 152.987 -19.9084 152.991 TC -20.0531 153.222 7 8 166
1936078S14155 1936 10 SP EA NOT_NAMED 1936-03-20 11:00:00 TS -20.2094 153.140 main 349 349 ______P__PO___ -1 -20.1747 153.056 -20.1535 153.065 TC -20.3000 153.300 7 8 164
1936078S14155 1936 10 SP EA NOT_NAMED 1936-03-20 12:00:00 TS -20.3316 153.179 main 349 327 ______P__PP___ -1 -20.2950 153.093 -20.2748 153.105 TC -20.4249 153.340 7 8 162
1936078S14155 1936 10 SP EA NOT_NAMED 1936-03-20 15:00:00 TS -20.6920 153.310 main 327 316 ______P__PP___ -1 -20.6479 153.216 -20.6319 153.238 TC -20.7963 153.476 7 8 160
1936078S14155 1936 10 SP EA NOT_NAMED 1936-03-20 18:00:00 TS -21.0384 153.456 main 325 314 ______P__PP___ -1 -20.9852 153.353 -20.9749 153.384 TC -21.1552 153.630 7 7 157
1936078S14155 1936 10 SP EA NOT_NAMED 1936-03-20 21:00:00 TS -21.3645 153.610 main 313 313 ______P__PP___ -1 -21.3022 153.499 -21.2992 153.540 TC -21.4921 153.792 7 7 155
1936078S14155 1936 10 SP EA NOT_NAMED 1936-03-20 23:00:00 TS -21.5675 153.715 bom main 315 315 ______O__PO___ -1 -21.5000 153.600 -21.5026 153.646 TC -21.7000 153.900 7 7 154
1936078S14155 1936 10 SP EA NOT_NAMED 1936-03-21 00:00:00 TS -21.6651 153.763 main 321 318 ______P__OP___ -1 -21.5936 153.641 -21.6000 153.700 TC -21.8016 153.949 7 6 156
1936078S14155 1936 10 SP EA NOT_NAMED 1936-03-21 03:00:00 TS -21.9395 153.898 main 326 299 ______P__PP___ -1 -21.8589 153.770 -21.8729 153.829 TC -22.0866 154.095 7 6 154
1936078S14155 1936 10 SP EA NOT_NAMED 1936-03-21 06:00:00 TS -22.1895 154.039 main 299 280 ______P__PP___ -1 -22.1030 153.909 -22.1238 153.965 TC -22.3415 154.242 7 5 151
1936078S14155 1936 10 SP EA NOT_NAMED 1936-03-21 09:00:00 TS -22.4166 154.186 main 283 272 ______P__PP___ -1 -22.3283 154.057 -22.3550 154.108 TC -22.5666 154.394 7 5 147
1936078S14155 1936 10 SP EA NOT_NAMED 1936-03-21 11:00:00 TS -22.5562 154.290 main 266 266 ______P__PO___ -1 -22.4692 154.161 -22.4994 154.209 TC -22.7000 154.500 7 5 145
1936078S14155 1936 10 SP EA NOT_NAMED 1936-03-21 12:00:00 TS -22.6227 154.343 main 266 254 ______P__PP___ -1 -22.5371 154.215 -22.5690 154.261 TC -22.7621 154.551 7 5 141
1936078S14155 1936 10 SP EA NOT_NAMED 1936-03-21 15:00:00 TS -22.8087 154.507 main 254 246 ______P__PP___ -1 -22.7318 154.385 -22.7681 154.426 TC -22.9260 154.710 7 5 139
1936078S14155 1936 10 SP EA NOT_NAMED 1936-03-21 18:00:00 TS -22.9793 154.683 main 246 243 ______P__PP___ -1 -22.9148 154.567 -22.9548 154.602 TC -23.0683 154.878 7 5 135
1936078S14155 1936 10 SP EA NOT_NAMED 1936-03-21 21:00:00 TS -23.1414 154.873 main 250 241 ______P__PP___ -1 -23.0883 154.762 -23.1313 154.793 TC -23.2047 155.064 7 5 132
1936078S14155 1936 10 SP EA NOT_NAMED 1936-03-21 23:00:00 TS -23.2482 155.010 bom main 248 240 ______O__PO___ -1 -23.2000 154.900 -23.2445 154.929 TC -23.3000 155.200 7 5 131
1936078S14155 1936 10 SP EA NOT_NAMED 1936-03-22 00:00:00 TS -23.3031 155.075 main 247 240 ______P__OP___ -1 -23.2507 154.950 -23.3000 155.000 TC -23.3587 155.276 7 5 131
1936078S14155 1936 10 SP EA NOT_NAMED 1936-03-22 03:00:00 TS -23.4654 155.281 main 249 249 ______P__PP___ -1 -23.3914 155.101 -23.4629 155.224 TC -23.5419 155.520 7 5 129
1936078S14155 1936 10 SP EA NOT_NAMED 1936-03-22 06:00:00 TS -23.6226 155.501 main 260 260 ______P__PP___ -1 -23.5209 155.261 -23.6210 155.462 TC -23.7258 155.779 7 5 127
1936078S14155 1936 10 SP EA NOT_NAMED 1936-03-22 09:00:00 TS -23.7731 155.731 main 267 267 ______P__PP___ -1 -23.6466 155.443 -23.7747 155.714 TC -23.8979 156.037 7 5 125
1936078S14155 1936 10 SP EA NOT_NAMED 1936-03-22 11:00:00 TS -23.8691 155.890 main 281 281 ______P__PO___ -1 -23.7321 155.581 -23.8751 155.889 TC -24.0000 156.200 7 5 123
1936078S14155 1936 10 SP EA NOT_NAMED 1936-03-22 12:00:00 TS -23.9122 155.964 main 290 285 ______P__PP___ -1 -23.7761 155.656 -23.9248 155.978 TC -24.0357 156.258 7 5 121
1936078S14155 1936 10 SP EA NOT_NAMED 1936-03-22 15:00:00 TS -24.0372 156.192 main 304 300 ______P__PP___ -1 -23.9166 155.914 -24.0717 156.250 TC -24.1233 156.413 7 5 120
1936078S14155 1936 10 SP EA NOT_NAMED 1936-03-22 18:00:00 TS -24.1651 156.444 main 316 316 ______P__PP___ -1 -24.0754 156.226 -24.2161 156.529 TC -24.2039 156.578 7 6 118
1936078S14155 1936 10 SP EA NOT_NAMED 1936-03-22 21:00:00 TS -24.3035 156.732 main 342 342 ______P__PP___ -1 -24.2596 156.605 -24.3587 156.813 TC -24.3061 156.799 7 6 118
1936078S14155 1936 10 SP EA NOT_NAMED 1936-03-22 23:00:00 TS -24.4106 156.961 bom main 369 369 ______O__PO___ -1 -24.4000 156.900 -24.4530 157.004 TC -24.4000 157.000 7 7 116
1936078S14155 1936 10 SP EA NOT_NAMED 1936-03-23 00:00:00 TS -24.4690 157.097 main 377 377 ______P__OP___ -1 -24.4720 157.070 -24.5000 157.100 TC -24.4583 157.123 7 10 115
1936078S14155 1936 10 SP EA NOT_NAMED 1936-03-23 03:00:00 NR -24.6840 157.597 main 424 424 ______P___P___ -1 -24.7039 157.634 TC -24.6640 157.560 7 11 116
1936078S14155 1936 10 SP EA NOT_NAMED 1936-03-23 06:00:00 NR -24.9365 158.170 main 483 483 ______P___P___ -1 -24.9616 158.255 TC -24.9114 158.084 7 12 116
1936078S14155 1936 10 SP EA NOT_NAMED 1936-03-23 09:00:00 NR -25.2213 158.793 main 543 543 ______P___P___ -1 -25.2483 158.909 TC -25.1943 158.677 7 13 117
1936078S14155 1936 10 SP EA NOT_NAMED 1936-03-23 11:00:00 NR -25.4286 159.225 main 584 584 ______P___O___ -1 -25.4572 159.350 TC -25.4000 159.100 7 13 118
1936078S14155 1936 10 SP EA NOT_NAMED 1936-03-23 12:00:00 NR -25.5373 159.444 main 605 605 ______P___P___ -1 -25.5674 159.569 TC -25.5073 159.318 7 14 120
1936078S14155 1936 10 SP EA NOT_NAMED 1936-03-23 14:00:00 NR -25.7648 159.883 bom main 658 658 ______O___P___ -1 -25.8000 160.000 TC -25.7296 159.765 7 14 120
1936078S14155 1936 10 SP MM NOT_NAMED 1936-03-23 15:00:00 NR -25.8833 160.102 main 679 679 ______P___P___ -1 -25.9227 160.210 TC -25.8439 159.993 7 14 122
1936078S14155 1936 10 SP MM NOT_NAMED 1936-03-23 18:00:00 NR -26.2542 160.757 main 688 679 ______P___P___ -1 -26.3117 160.819 TC -26.1967 160.695 7 14 123
1936078S14155 1936 10 SP MM NOT_NAMED 1936-03-23 21:00:00 NR -26.6399 161.412 main 681 680 ______P___P___ -1 -26.7218 161.410 TC -26.5581 161.414 7 14 123
1936078S14155 1936 10 SP MM NOT_NAMED 1936-03-23 23:00:00 NR -26.9000 161.850 bom main 683 ______O___O___ -1 -27.0000 161.800 TC -26.8000 161.900 7 14 124

デジタル台風データ・検索

IBTrACS Databaseについて

本データベースは、米国NOAAが公開する1842年以降の世界の熱帯低気圧のベストトラックデータアーカイブInternational Best Track Archive for Climate Stewardship (IBTrACS)を、ウェブで閲覧しやすい形式に変換したものです。

最終更新日:2021-10-21